KHOP

Campbell AAF (Fort Campbell) Airport

Fort Campbell/Hopkinsville, Kentucky, USA
METAR KHOP 151256Z AUTO 31006KT 10SM OVC031 M01/M07 A3012 RMK AO2 SLP207 T10061068 FZRANO $
Observed Flight Rules
Dec-15 @ 12:56 UTC (50 minutes ago) Visual Flight Rules
Wind Visibility Clouds
310° at 6 knots 10 miles
  • Overcast at 3,100' AGL
Temperatures Readings
Current -1°C / 30°F
Dewpoint -7°C / 19°F
Humidity 64%
Altimeter 30.12" Hg
Pressure 1020.7 hPa
Elevation 174
METAR KHOP 151256Z AUTO 31006KT 10SM OVC031 M01/M07 A3012 RMK AO2 SLP207 T10061068 FZRANO $
Observed Flight Rules
Dec-15 @ 12:56 UTC
(50 minutes ago)
VFR
Wind Visibility
310° at 6 knots 10 miles
Clouds
  • Overcast at 3,100' AGL
Temperature Dewpoint
-1°C / 30°F -7°C / 19°F
Humidity Altimeter Pressure
64% 30.12" Hg 1020.7 hPa